• Join FlightAware (Why Join?)
  • Login
  • US Flag 
04:44AM EDT


 

Airport Tracker/Info


-or-


 

Live Flight TrackerFlight Track Log ✈ BER8812 ✈ 24-Apr-2013 ✈ EDDL / DUS - LOWW / VIE

Flight Track Log - Related Links

Times and Time Zones

All times are in EDT time to prevent confusion due to time zone crossing. See the BER8812 flight status page for this flight to view local times or setup timezone preferences in your user account.

Time Position Orientation Groundspeed Altitude Reporting Facility
EDT Latitude Longitude Course Direction KTS MPH feet Rate Location/Type
03:27PM 51.0059 7.8195 113° Southeast  Level Estimated
03:28PM 50.9646 7.9688 114° Southeast  Level Estimated
03:29PM 50.9231 8.1179 114° Southeast  Level Estimated
03:30PM 50.8815 8.2667 114° Southeast  Level Estimated
03:31PM 50.8396 8.4152 114° Southeast  Level Estimated
03:32PM 50.7976 8.5635 114° Southeast  Level Estimated
03:33PM 50.7554 8.7115 114° Southeast  Level Estimated
03:34PM 50.7130 8.8592 114° Southeast  Level Estimated
03:35PM 50.6704 9.0067 114° Southeast  Level Estimated
03:36PM 50.6276 9.1539 115° Southeast  Level Estimated
03:37PM 50.5846 9.3008 115° Southeast  Level Estimated
03:38PM 50.5415 9.4475 115° Southeast  Level Estimated
03:39PM 50.4982 9.5939 115° Southeast  Level Estimated
03:40PM 50.4547 9.7400 115° Southeast  Level Estimated
03:41PM 50.4109 9.8859 115° Southeast  Level Estimated
03:42PM 50.3671 10.0314 115° Southeast  Level Estimated
03:43PM 50.3230 10.1768 115° Southeast  Level Estimated
03:44PM 50.2788 10.3218 115° Southeast  Level Estimated
03:45PM 50.2343 10.4666 116° Southeast  Level Estimated
03:46PM 50.1898 10.6111 116° Southeast  Level Estimated
03:47PM 50.1450 10.7553 116° Southeast  Level Estimated
03:48PM 50.1000 10.8993 116° Southeast  Level Estimated
03:49PM 50.0549 11.0430 116° Southeast  Level Estimated
03:50PM 50.0095 11.1864 116° Southeast  Level Estimated
03:51PM 49.9641 11.3296 116° Southeast  Level Estimated
03:52PM 49.9184 11.4724 116° Southeast  Level Estimated
03:53PM 49.8726 11.6151 116° Southeast  Level Estimated
03:54PM 49.8265 11.7574 117° Southeast  Level Estimated
03:55PM 49.7803 11.8995 117° Southeast  Level Estimated
03:56PM 49.7340 12.0413 117° Southeast  Level Estimated
03:57PM 49.6874 12.1828 117° Southeast  Level Estimated
03:58PM 49.6407 12.3240 117° Southeast  Level Estimated
03:59PM 49.5938 12.4650 117° Southeast  Level Estimated
04:00PM 49.5468 12.6057 117° Southeast  Level Estimated
04:01PM 49.4996 12.7462 117° Southeast  Level Estimated
04:02PM 49.4522 12.8863 117° Southeast  Level Estimated
04:03PM 49.4046 13.0262 118° Southeast  Level Estimated
04:04PM 49.3569 13.1659 118° Southeast  Level Estimated
04:05PM 49.3090 13.3052 118° Southeast  Level Estimated
04:06PM 49.2609 13.4443 118° Southeast  Level Estimated
04:07PM 49.2127 13.5831 118° Southeast  Level Estimated
04:08PM 49.1643 13.7217 118° Southeast  Level Estimated
04:09PM 49.1157 13.8600 118° Southeast  Level Estimated
04:10PM 49.0670 13.9979 118° Southeast  Level Estimated
04:11PM 49.0181 14.1357 118° Southeast  Level Estimated
04:12PM 48.9691 14.2731 118° Southeast  Level Estimated
04:13PM 48.9199 14.4103 119° Southeast  Level Estimated
04:14PM 48.8705 14.5472 119° Southeast  Level Estimated
04:15PM 48.8209 14.6839 119° Southeast  Level Estimated
04:16PM 48.7712 14.8203 119° Southeast  Level Estimated
04:17PM 48.7214 14.9564 119° Southeast  Level Estimated
04:18PM 48.6714 15.0922 119° Southeast  Level Estimated
04:19PM 48.6212 15.2278 119° Southeast  Level Estimated
04:20PM 48.5708 15.3631 119° Southeast  Level Estimated
04:21PM 48.5203 15.4981 119° Southeast  Level Estimated
04:22PM 48.4697 15.6329 120° Southeast  Level Estimated
04:23PM 48.4189 15.7674 120° Southeast  Level Estimated
04:24PM 48.3679 15.9016 120° Southeast  Level Estimated
04:25PM 48.3168 16.0355 120° Southeast  Level Estimated
04:26PM 48.2655 16.1692 120° Southeast  Level Estimated
04:27PM 48.2140 16.3026 120° Southeast  Level Estimated
04:28PM 48.1624 16.4358 120° Southeast  Level Estimated
04:29PM 48.1107 16.5687 120° Southeast  Level Estimated
04:30PM 48.1103 16.5697 120° Southeast  Level Estimated
04:31PM 48.1103 16.5697 146° Southeast  Level Estimated
04:32PM 48.1103 16.5697 146° Southeast  Level Estimated
04:33PM 48.1103 16.5697 146° Southeast  Level Estimated
04:34PM 48.1103 16.5697 146° Southeast  Level Estimated
04:35PM 48.1103 16.5697 146° Southeast  Level Estimated